Wetterdaten: aktuell Montag, 28.11.2022 11:50
Datum Zeit Temp. 2m rel. Feuchte Luftdruck Regen Wind Richtung Richtung Sonne ET UV-Index Solar Taupunkt Ben
28.11.2022 11:50 7,0 C 93 % 1011,0 hPa 0,0 mm 1,5 km/h (1 Bft) O 84 0 min 0,0 mm 0,0 UV-I 32 W/m 5,9 C 8,9 km/h (2 Bft)
28.11.2022 10:50 6,6 C 93 % 1011,1 hPa 0,0 mm 1,2 km/h (1 Bft) O 84 0 min 0,0 mm 0,0 UV-I 43 W/m 5,6 C 8,9 km/h (2 Bft)
28.11.2022 09:50 6,3 C 93 % 1010,9 hPa 0,0 mm 1,1 km/h (1 Bft) O 84 0 min 0,0 mm 0,0 UV-I 26 W/m 5,3 C 11,1 km/h (2 Bft)
28.11.2022 08:50 6,2 C 93 % 1010,8 hPa 0,0 mm 3,6 km/h (1 Bft) S 185 0 min 0,0 mm 0,0 UV-I 13 W/m 5,2 C 13,3 km/h (3 Bft)
28.11.2022 07:50 6,2 C 93 % 1010,5 hPa 0,5 mm 1,6 km/h (1 Bft) S-SW 201 0 min 0,0 mm 0,0 UV-I 0 W/m 5,2 C 11,1 km/h (2 Bft)
28.11.2022 06:50 6,1 C 93 % 1010,6 hPa 0,0 mm 0,1 km/h (0 Bft) S-SW 197 0 min 0,0 mm 0,0 UV-I 0 W/m 5,1 C 2,2 km/h (1 Bft)
28.11.2022 05:50 6,1 C 93 % 1010,8 hPa 0,5 mm 0,8 km/h (0 Bft) S-SW 207 0 min 0,0 mm 0,0 UV-I 0 W/m 5,1 C 8,9 km/h (2 Bft)
28.11.2022 04:50 6,3 C 91 % 1010,4 hPa 0,5 mm 1,0 km/h (0 Bft) S 170 0 min 0,0 mm 0,0 UV-I 0 W/m 4,9 C 15,5 km/h (3 Bft)
28.11.2022 03:50 6,4 C 91 % 1010,9 hPa 0,0 mm 1,0 km/h (0 Bft) S 169 0 min 0,0 mm 0,0 UV-I 0 W/m 5,0 C 8,9 km/h (2 Bft)
28.11.2022 02:50 6,4 C 91 % 1011,1 hPa 0,0 mm 2,7 km/h (1 Bft) O 84 0 min 0,0 mm 0,0 UV-I 0 W/m 5,0 C 13,3 km/h (3 Bft)
28.11.2022 01:50 6,5 C 91 % 1011,4 hPa 0,5 mm 3,0 km/h (1 Bft) O 84 0 min 0,0 mm 0,0 UV-I 0 W/m 5,1 C 13,3 km/h (3 Bft)
28.11.2022 00:50 6,5 C 90 % 1012,2 hPa 0,5 mm 1,1 km/h (1 Bft) O 84 0 min 0,0 mm 0,0 UV-I 0 W/m 5,0 C 6,7 km/h (2 Bft)
27.11.2022 23:50 6,6 C 90 % 1012,8 hPa 0,3 mm 4,1 km/h (1 Bft) S-SO 153 0 min 0,0 mm 0,0 UV-I 0 W/m 5,1 C 15,5 km/h (3 Bft)
27.11.2022 22:50 6,9 C 88 % 1013,1 hPa 0,0 mm 1,2 km/h (1 Bft) S 189 0 min 0,0 mm 0,0 UV-I 0 W/m 5,1 C 8,9 km/h (2 Bft)
27.11.2022 21:50 7,0 C 85 % 1014,1 hPa 0,0 mm 0,5 km/h (0 Bft) O 84 0 min 0,0 mm 0,0 UV-I 0 W/m 4,7 C 8,9 km/h (2 Bft)
27.11.2022 20:50 6,9 C 85 % 1014,7 hPa 0,0 mm 2,5 km/h (1 Bft) O 84 0 min 0,0 mm 0,0 UV-I 0 W/m 4,6 C 11,1 km/h (2 Bft)
27.11.2022 19:50 7,1 C 85 % 1015,2 hPa 0,0 mm 0,9 km/h (0 Bft) O 84 0 min 0,0 mm 0,0 UV-I 0 W/m 4,8 C 4,4 km/h (1 Bft)
27.11.2022 18:50 7,4 C 84 % 1015,7 hPa 0,0 mm 2,5 km/h (1 Bft) O 84 0 min 0,0 mm 0,0 UV-I 0 W/m 4,9 C 15,5 km/h (3 Bft)
27.11.2022 17:50 7,5 C 85 % 1016,8 hPa 0,0 mm 2,2 km/h (1 Bft) O 84 0 min 0,0 mm 0,0 UV-I 0 W/m 5,1 C 11,1 km/h (2 Bft)
27.11.2022 16:50 7,9 C 83 % 1017,6 hPa 0,0 mm 2,3 km/h (1 Bft) O 84 0 min 0,0 mm 0,0 UV-I 0 W/m 5,2 C 11,1 km/h (2 Bft)
27.11.2022 15:50 8,5 C 79 % 1017,8 hPa 0,0 mm 2,3 km/h (1 Bft) O 84 0 min 0,0 mm 0,0 UV-I 13 W/m 5,1 C 13,3 km/h (3 Bft)
27.11.2022 14:50 9,0 C 74 % 1017,9 hPa 0,0 mm 0,9 km/h (0 Bft) O 84 0 min 0,1 mm 0,0 UV-I 38 W/m 4,6 C 8,9 km/h (2 Bft)
27.11.2022 13:50 8,8 C 74 % 1018,8 hPa 0,0 mm 1,1 km/h (1 Bft) O 84 0 min 0,0 mm 0,0 UV-I 91 W/m 4,4 C 6,7 km/h (2 Bft)
27.11.2022 12:50 8,1 C 79 % 1019,9 hPa 0,0 mm 1,5 km/h (1 Bft) O 84 0 min 0,0 mm 0,0 UV-I 74 W/m 4,7 C 20,0 km/h (4 Bft)
27.11.2022 12:00 7,7 C 82 % 1021,0 hPa 0,0 mm 3,0 km/h (1 Bft) O 84 0 min 0,0 mm 0,0 UV-I 98 W/m 4,8 C 17,8 km/h (3 Bft)
_ Min-Zeit 05:30 14:40 05:15 - 06:30 - - - - - - 13:35 06:30
Minimum _ 6,1 C 73 % 1010,3 hPa - 0,0 km/h (0 Bft) - - - - - - 4,2 C 0,0 km/h (0 Bft)
_ Max-Zeit 14:15 05:30 12:00 23:50 19:25 - - 12:00 14:00 12:00 13:05 11:50 13:20
Maximum _ 9,0 C 93 % 1021,0 hPa 0,3 mm 6,5 km/h
O (2 Bft)
- - 0 min 0,1 mm 0,0 UV-I 120 W/m 5,9 C 31,1 km/h
O (5 Bft)
Durchschnitt _ 7,1 C 87 % 1014,3 hPa #2,8 mm 2,1 km/h (1 Bft) O - #0 min. #0,025 mm 0,0 UV-I 26 W/m 5,0 C 12,3 km/h (3 Bft)



© 1998 - 2022 www.pulheimwetter.de